createdAt,value
2022-12-18T00:01:34.250Z,100.00
2022-12-18T00:04:02.019Z,100.00
2022-12-18T00:06:29.450Z,100.00
2022-12-18T00:08:56.804Z,100.00
2022-12-18T00:11:24.767Z,100.00
2022-12-18T00:13:51.846Z,100.00
2022-12-18T00:16:22.763Z,100.00
2022-12-18T00:18:50.536Z,100.00
2022-12-18T00:21:17.424Z,100.00
2022-12-18T00:23:44.585Z,100.00
2022-12-18T00:26:13.112Z,100.00
2022-12-18T00:28:39.561Z,100.00
2022-12-18T00:31:10.630Z,100.00
2022-12-18T00:33:37.758Z,100.00
2022-12-18T00:36:05.848Z,100.00
2022-12-18T00:38:32.629Z,100.00
2022-12-18T00:40:59.297Z,100.00
2022-12-18T00:43:26.027Z,100.00
2022-12-18T00:45:53.186Z,100.00
2022-12-18T00:48:19.757Z,100.00
2022-12-18T00:50:46.196Z,100.00
2022-12-18T00:53:12.841Z,100.00
2022-12-18T00:55:43.120Z,100.00
2022-12-18T00:58:10.327Z,100.00
2022-12-18T01:00:36.865Z,100.00
2022-12-18T01:03:03.851Z,100.00
2022-12-18T01:05:30.354Z,100.00
2022-12-18T01:07:57.520Z,100.00
2022-12-18T01:10:24.571Z,100.00
2022-12-18T01:12:51.378Z,100.00
2022-12-18T01:15:18.124Z,100.00
2022-12-18T01:17:44.665Z,100.00
2022-12-18T01:20:12.265Z,100.00
2022-12-18T01:22:39.118Z,100.00
2022-12-18T01:25:07.725Z,100.00
2022-12-18T01:27:34.505Z,100.00
2022-12-18T01:30:04.044Z,100.00
2022-12-18T01:32:31.445Z,100.00
2022-12-18T01:34:58.146Z,100.00
2022-12-18T01:37:25.321Z,100.00
2022-12-18T01:39:55.177Z,100.00
2022-12-18T01:42:22.164Z,100.00
2022-12-18T01:45:07.162Z,100.00
2022-12-18T01:47:36.772Z,100.00
2022-12-18T01:50:26.908Z,100.00
2022-12-18T01:52:55.150Z,100.00
2022-12-18T01:55:23.286Z,100.00
2022-12-18T01:57:50.786Z,100.00
2022-12-18T02:00:20.157Z,100.00
2022-12-18T02:02:47.729Z,100.00
2022-12-18T02:05:18.798Z,100.00
2022-12-18T02:07:58.744Z,100.00
2022-12-18T02:10:30.085Z,100.00
2022-12-18T02:13:21.485Z,100.00
2022-12-18T02:15:55.724Z,100.00
2022-12-18T02:18:29.472Z,100.00
2022-12-18T02:21:07.826Z,100.00
2022-12-18T02:23:34.247Z,100.00
2022-12-18T02:26:16.281Z,100.00
2022-12-18T02:28:46.617Z,100.00
2022-12-18T02:31:16.692Z,100.00
2022-12-18T02:33:45.005Z,100.00
2022-12-18T02:36:13.956Z,100.00
2022-12-18T02:38:43.389Z,100.00
2022-12-18T02:41:14.023Z,100.00
2022-12-18T02:43:41.431Z,100.00
2022-12-18T02:46:37.877Z,100.00
2022-12-18T02:49:18.599Z,100.00
2022-12-18T02:51:54.375Z,100.00
2022-12-18T02:54:32.839Z,100.00
2022-12-18T02:57:02.799Z,100.00
2022-12-18T02:59:38.680Z,100.00
2022-12-18T03:02:10.237Z,100.00
2022-12-18T03:04:40.075Z,100.00
2022-12-18T03:07:09.939Z,100.00
2022-12-18T03:09:39.579Z,100.00
2022-12-18T03:12:25.513Z,100.00
2022-12-18T03:14:57.726Z,100.00
2022-12-18T03:17:26.391Z,99.44
2022-12-18T03:19:54.469Z,99.93
2022-12-18T03:22:22.008Z,99.81
2022-12-18T03:24:52.505Z,99.83
2022-12-18T03:27:21.284Z,99.30
2022-12-18T03:29:51.640Z,98.93
2022-12-18T03:32:25.958Z,98.67
2022-12-18T03:34:54.583Z,97.97
2022-12-18T03:37:23.103Z,97.75
2022-12-18T03:39:49.567Z,97.53
2022-12-18T03:42:23.538Z,97.03
2022-12-18T03:45:04.117Z,96.78
2022-12-18T03:47:35.650Z,96.94
2022-12-18T03:50:12.848Z,96.67
2022-12-18T03:52:46.832Z,96.48
2022-12-18T03:55:13.876Z,95.81
2022-12-18T03:57:43.180Z,95.09
2022-12-18T04:00:12.761Z,95.04
2022-12-18T04:02:54.982Z,95.52
2022-12-18T04:05:29.484Z,94.82
2022-12-18T04:07:57.213Z,95.06
2022-12-18T04:10:23.765Z,95.38
2022-12-18T04:12:51.045Z,94.96
2022-12-18T04:15:17.855Z,94.93
2022-12-18T04:17:50.865Z,93.93
2022-12-18T04:20:20.900Z,95.13
2022-12-18T04:22:48.172Z,95.30
2022-12-18T04:25:15.140Z,94.50
2022-12-18T04:27:53.585Z,94.58
2022-12-18T04:30:20.077Z,94.43
2022-12-18T04:32:52.067Z,94.41
2022-12-18T04:35:19.863Z,94.92
2022-12-18T04:37:47.092Z,94.77
2022-12-18T04:40:13.779Z,94.41
2022-12-18T04:42:43.851Z,94.40
2022-12-18T04:45:10.503Z,93.54
2022-12-18T04:47:37.218Z,93.48
2022-12-18T04:50:03.883Z,93.89
2022-12-18T04:52:30.400Z,92.86
2022-12-18T04:54:56.805Z,92.58
2022-12-18T04:57:23.285Z,93.17
2022-12-18T04:59:49.734Z,93.02
2022-12-18T05:02:16.288Z,93.06
2022-12-18T05:04:42.769Z,92.94
2022-12-18T05:07:09.196Z,92.97
2022-12-18T05:09:35.740Z,93.07
2022-12-18T05:12:02.228Z,93.24
2022-12-18T05:14:30.128Z,92.60
2022-12-18T05:17:00.631Z,92.81
2022-12-18T05:19:27.565Z,93.50
2022-12-18T05:21:54.017Z,93.17
2022-12-18T05:24:20.560Z,92.94
2022-12-18T05:26:47.399Z,93.20
2022-12-18T05:29:14.207Z,93.08
2022-12-18T05:31:40.953Z,92.43
2022-12-18T05:34:09.506Z,91.14
2022-12-18T05:36:37.053Z,91.69
2022-12-18T05:39:03.766Z,91.14
2022-12-18T05:41:30.895Z,92.38
2022-12-18T05:43:57.421Z,93.43
2022-12-18T05:46:25.261Z,93.78
2022-12-18T05:48:52.093Z,93.94
2022-12-18T05:51:19.866Z,94.59
2022-12-18T05:53:46.424Z,94.38
2022-12-18T05:56:17.836Z,94.29
2022-12-18T05:58:44.472Z,94.70
2022-12-18T06:01:22.052Z,94.57
2022-12-18T06:03:48.606Z,94.65
2022-12-18T06:06:19.900Z,93.61
2022-12-18T06:08:46.823Z,94.03
2022-12-18T06:11:13.572Z,93.56
2022-12-18T06:13:40.642Z,93.55
2022-12-18T06:16:07.560Z,93.66
2022-12-18T06:18:34.084Z,92.97
2022-12-18T06:21:01.200Z,93.33
2022-12-18T06:23:27.816Z,93.91
2022-12-18T06:25:54.753Z,93.54
2022-12-18T06:28:21.264Z,93.30
2022-12-18T06:30:49.190Z,93.35
2022-12-18T06:33:16.213Z,93.23
2022-12-18T06:35:42.741Z,93.54
2022-12-18T06:38:09.172Z,93.29
2022-12-18T06:40:37.548Z,93.58
2022-12-18T06:43:03.962Z,94.06
2022-12-18T06:45:30.477Z,94.12
2022-12-18T06:47:57.036Z,94.25
2022-12-18T06:50:23.901Z,94.56
2022-12-18T06:52:50.358Z,94.71
2022-12-18T06:55:16.989Z,95.29
2022-12-18T06:57:43.399Z,95.37
2022-12-18T07:00:10.087Z,95.09
2022-12-18T07:02:36.666Z,94.42
2022-12-18T07:05:08.967Z,94.94
2022-12-18T07:07:37.268Z,95.08
2022-12-18T07:10:04.214Z,95.51
2022-12-18T07:12:30.725Z,94.93
2022-12-18T07:14:57.245Z,94.62
2022-12-18T07:17:23.742Z,94.91
2022-12-18T07:19:50.226Z,94.27
2022-12-18T07:22:16.686Z,94.50
2022-12-18T07:24:43.124Z,94.30
2022-12-18T07:27:09.811Z,94.55
2022-12-18T07:29:36.916Z,94.02
2022-12-18T07:32:04.560Z,94.59
2022-12-18T07:34:31.026Z,94.51
2022-12-18T07:36:57.498Z,95.12
2022-12-18T07:39:23.900Z,95.17
2022-12-18T07:42:10.302Z,93.76
2022-12-18T07:44:40.028Z,94.14
2022-12-18T07:47:11.641Z,94.41
2022-12-18T07:49:38.676Z,92.09
2022-12-18T07:52:05.249Z,90.83
2022-12-18T07:54:31.696Z,93.21
2022-12-18T07:56:58.211Z,92.64
2022-12-18T07:59:24.688Z,92.77
2022-12-18T08:01:51.258Z,92.60
2022-12-18T08:04:17.869Z,92.37
2022-12-18T08:06:47.765Z,91.60
2022-12-18T08:09:14.973Z,89.46
2022-12-18T08:11:41.408Z,87.13
2022-12-18T08:14:07.889Z,86.94
2022-12-18T08:16:34.437Z,87.45
2022-12-18T08:19:01.038Z,87.41
2022-12-18T08:21:28.888Z,84.24
2022-12-18T08:23:56.304Z,86.81
2022-12-18T08:26:23.317Z,83.70
2022-12-18T08:28:50.447Z,84.36
2022-12-18T08:31:17.375Z,82.62
2022-12-18T08:33:44.411Z,78.11
2022-12-18T08:36:11.564Z,78.95
2022-12-18T08:38:38.011Z,79.82
2022-12-18T08:41:09.743Z,79.87
2022-12-18T08:43:54.827Z,81.36
2022-12-18T08:46:22.478Z,77.80
2022-12-18T08:48:49.353Z,78.00
2022-12-18T08:51:17.126Z,74.41
2022-12-18T08:53:44.215Z,76.94
2022-12-18T08:56:11.130Z,73.06
2022-12-18T08:58:37.742Z,72.74
2022-12-18T09:01:05.181Z,76.74
2022-12-18T09:03:32.049Z,76.69
2022-12-18T09:05:58.581Z,76.62
2022-12-18T09:08:25.008Z,78.38
2022-12-18T09:10:51.434Z,76.23
2022-12-18T09:13:18.624Z,74.38
2022-12-18T09:15:48.877Z,76.55
2022-12-18T09:18:16.480Z,76.93
2022-12-18T09:20:43.226Z,74.94
2022-12-18T09:23:10.144Z,76.49
2022-12-18T09:25:37.199Z,76.13
2022-12-18T09:28:04.717Z,75.27
2022-12-18T09:30:31.408Z,76.02
2022-12-18T09:32:58.712Z,74.09
2022-12-18T09:35:25.134Z,75.07
2022-12-18T09:37:51.637Z,72.69
2022-12-18T09:40:20.206Z,72.88
2022-12-18T09:42:48.776Z,72.08
2022-12-18T09:45:15.882Z,71.39
2022-12-18T09:47:44.073Z,67.07
2022-12-18T09:50:17.501Z,68.70
2022-12-18T09:52:50.302Z,71.12
2022-12-18T09:55:25.181Z,71.01
2022-12-18T09:57:57.352Z,72.06
2022-12-18T10:00:25.004Z,70.49
2022-12-18T10:02:55.237Z,74.18
2022-12-18T10:05:30.052Z,75.88
2022-12-18T10:08:02.917Z,77.25
2022-12-18T10:10:40.740Z,75.59
2022-12-18T10:13:19.352Z,75.54
2022-12-18T10:15:51.674Z,76.84
2022-12-18T10:18:27.806Z,77.27
2022-12-18T10:20:57.161Z,79.04
2022-12-18T10:23:23.584Z,78.80
2022-12-18T10:25:58.962Z,79.94
2022-12-18T10:28:26.336Z,80.64
2022-12-18T10:30:52.940Z,80.62
2022-12-18T10:33:24.109Z,80.03
2022-12-18T10:35:52.901Z,79.65
2022-12-18T10:38:20.109Z,78.86
2022-12-18T10:40:55.963Z,76.58
2022-12-18T10:43:26.717Z,77.07
2022-12-18T10:46:02.193Z,78.73
2022-12-18T10:48:29.106Z,79.19
2022-12-18T10:51:12.207Z,80.30
2022-12-18T10:53:41.096Z,77.87
2022-12-18T10:56:07.955Z,80.04
2022-12-18T10:58:38.879Z,79.35
2022-12-18T11:01:11.745Z,79.86
2022-12-18T11:03:38.550Z,80.26
2022-12-18T11:06:11.240Z,80.17
2022-12-18T11:08:38.622Z,79.66
2022-12-18T11:11:08.253Z,82.67
2022-12-18T11:13:34.801Z,85.22
2022-12-18T11:16:01.449Z,86.38
2022-12-18T11:18:29.757Z,85.05
2022-12-18T11:21:09.032Z,84.26
2022-12-18T11:23:36.237Z,83.72
2022-12-18T11:26:04.272Z,82.97
2022-12-18T11:28:30.748Z,83.17
2022-12-18T11:31:13.674Z,84.59
2022-12-18T11:33:58.489Z,85.04
2022-12-18T11:36:32.002Z,86.09
2022-12-18T11:39:00.418Z,88.63
2022-12-18T11:42:01.222Z,86.76
2022-12-18T11:44:29.464Z,87.89
2022-12-18T11:47:09.297Z,87.87
2022-12-18T11:49:37.080Z,87.03
2022-12-18T11:52:19.339Z,87.85
2022-12-18T11:54:46.147Z,88.10
2022-12-18T11:57:22.461Z,87.46
2022-12-18T11:59:58.064Z,89.33
2022-12-18T12:02:30.790Z,86.64
2022-12-18T12:05:12.777Z,88.68
2022-12-18T12:07:47.198Z,88.69
2022-12-18T12:10:27.840Z,89.36
2022-12-18T12:13:00.038Z,90.81
2022-12-18T12:15:26.489Z,89.63
2022-12-18T12:17:52.918Z,90.90
2022-12-18T12:20:19.328Z,91.03
2022-12-18T12:23:02.424Z,91.55
2022-12-18T12:25:34.149Z,91.43
2022-12-18T12:28:07.300Z,91.46
2022-12-18T12:30:52.604Z,92.68
2022-12-18T12:33:19.170Z,91.70
2022-12-18T12:35:53.916Z,88.91
2022-12-18T12:38:31.446Z,92.12
2022-12-18T12:41:03.209Z,91.90
2022-12-18T12:43:33.318Z,93.38
2022-12-18T12:46:12.937Z,92.97
2022-12-18T12:48:45.806Z,95.51
2022-12-18T12:51:21.155Z,96.76
2022-12-18T12:53:48.973Z,95.34
2022-12-18T12:56:16.953Z,95.81
2022-12-18T12:59:02.564Z,95.31
2022-12-18T13:01:50.437Z,95.14
2022-12-18T13:04:28.801Z,95.06
2022-12-18T13:06:55.667Z,92.47
2022-12-18T13:09:22.182Z,93.69
2022-12-18T13:12:07.298Z,94.22
2022-12-18T13:14:35.826Z,94.90
2022-12-18T13:17:20.956Z,95.36
2022-12-18T13:19:51.995Z,96.67
2022-12-18T13:22:38.652Z,97.21
2022-12-18T13:25:25.421Z,97.61
2022-12-18T13:28:00.544Z,97.49
2022-12-18T13:30:33.360Z,98.51
2022-12-18T13:33:15.275Z,97.60
2022-12-18T13:35:51.946Z,97.63
2022-12-18T13:38:38.190Z,97.55
2022-12-18T13:41:19.698Z,99.02
2022-12-18T13:43:47.480Z,98.30
2022-12-18T13:46:23.175Z,99.27
2022-12-18T13:48:56.083Z,99.42
2022-12-18T13:51:23.319Z,99.19
2022-12-18T13:53:55.135Z,98.78
2022-12-18T13:56:26.080Z,98.85
2022-12-18T13:59:12.112Z,98.38
2022-12-18T14:01:43.089Z,99.30
2022-12-18T14:04:18.718Z,99.82
2022-12-18T14:06:46.412Z,98.59
2022-12-18T14:09:21.306Z,98.14
2022-12-18T14:11:49.426Z,95.27
2022-12-18T14:14:17.502Z,94.40
2022-12-18T14:16:44.252Z,96.35
2022-12-18T14:19:18.819Z,96.59
2022-12-18T14:21:49.081Z,93.91
2022-12-18T14:24:17.583Z,94.00
2022-12-18T14:26:46.872Z,95.69
2022-12-18T14:29:22.756Z,97.56
2022-12-18T14:32:18.709Z,96.93
2022-12-18T14:34:49.853Z,96.89
2022-12-18T14:37:22.406Z,96.64
2022-12-18T14:40:01.251Z,97.37
2022-12-18T14:42:31.170Z,97.45
2022-12-18T14:45:16.157Z,95.28
2022-12-18T14:47:44.158Z,94.34
2022-12-18T14:50:15.011Z,95.25
2022-12-18T14:52:41.490Z,95.04
2022-12-18T14:55:15.780Z,95.11
2022-12-18T14:57:44.364Z,93.97
2022-12-18T15:00:19.281Z,96.12
2022-12-18T15:02:56.314Z,95.49
2022-12-18T15:05:30.045Z,95.80
2022-12-18T15:07:57.823Z,96.84
2022-12-18T15:10:25.701Z,97.43
2022-12-18T15:12:57.996Z,97.31
2022-12-18T15:15:36.706Z,97.11
2022-12-18T15:18:05.158Z,96.80
2022-12-18T15:20:33.137Z,96.51
2022-12-18T15:22:59.644Z,96.09
2022-12-18T15:25:46.460Z,97.97
2022-12-18T15:28:45.476Z,97.96
2022-12-18T15:31:15.897Z,96.82
2022-12-18T15:33:53.866Z,97.21
2022-12-18T15:36:26.363Z,96.49
2022-12-18T15:39:02.158Z,96.16
2022-12-18T15:41:33.412Z,97.11
2022-12-18T15:44:01.837Z,96.80
2022-12-18T15:46:29.796Z,96.64
2022-12-18T15:49:01.856Z,96.36
2022-12-18T15:51:32.245Z,96.03
2022-12-18T15:54:03.047Z,96.04
2022-12-18T15:56:48.156Z,95.99
2022-12-18T15:59:15.834Z,96.50
2022-12-18T16:01:44.259Z,96.52
2022-12-18T16:04:14.294Z,98.42
2022-12-18T16:07:05.655Z,97.02
2022-12-18T16:09:27.585Z,97.45
2022-12-18T16:11:54.097Z,98.33
2022-12-18T16:14:20.520Z,98.26
2022-12-18T16:16:48.385Z,98.27
2022-12-18T16:19:15.141Z,98.32
2022-12-18T16:21:41.680Z,98.37
2022-12-18T16:24:14.053Z,97.78
2022-12-18T16:26:42.865Z,97.61
2022-12-18T16:29:09.796Z,96.34
2022-12-18T16:31:37.098Z,96.46
2022-12-18T16:34:22.717Z,96.45
2022-12-18T16:36:50.820Z,95.98
2022-12-18T16:39:17.689Z,95.96
2022-12-18T16:41:46.641Z,95.97
2022-12-18T16:44:13.286Z,95.94
2022-12-18T16:46:49.141Z,96.13
2022-12-18T16:49:16.587Z,96.43
2022-12-18T16:51:44.742Z,96.62
2022-12-18T16:54:17.451Z,96.51
2022-12-18T16:56:46.799Z,96.54
2022-12-18T16:59:13.732Z,96.33
2022-12-18T17:01:44.221Z,96.82
2022-12-18T17:04:11.650Z,96.16
2022-12-18T17:06:41.664Z,96.14
2022-12-18T17:09:10.734Z,96.20
2022-12-18T17:11:37.602Z,95.25
2022-12-18T17:14:10.307Z,95.92
2022-12-18T17:16:37.655Z,96.34
2022-12-18T17:19:08.004Z,96.33
2022-12-18T17:21:37.460Z,96.95
2022-12-18T17:24:05.295Z,96.71
2022-12-18T17:26:31.961Z,97.01
2022-12-18T17:28:58.960Z,96.33
2022-12-18T17:31:26.847Z,97.31
2022-12-18T17:33:53.780Z,97.01
2022-12-18T17:36:23.736Z,96.88
2022-12-18T17:38:56.562Z,96.85
2022-12-18T17:41:29.466Z,96.82
2022-12-18T17:44:04.298Z,96.72
2022-12-18T17:46:32.187Z,97.50
2022-12-18T17:49:03.146Z,97.02
2022-12-18T17:51:32.377Z,97.23
2022-12-18T17:54:01.194Z,97.59
2022-12-18T17:56:28.038Z,96.97
2022-12-18T17:58:55.245Z,97.58
2022-12-18T18:01:23.630Z,97.72
2022-12-18T18:03:53.482Z,98.46
2022-12-18T18:06:20.961Z,97.87
2022-12-18T18:08:48.023Z,98.48
2022-12-18T18:11:35.304Z,98.13
2022-12-18T18:14:03.076Z,98.38
2022-12-18T18:16:30.803Z,98.64
2022-12-18T18:18:58.342Z,97.53
2022-12-18T18:21:24.944Z,97.78
2022-12-18T18:23:52.425Z,98.33
2022-12-18T18:26:21.068Z,97.30
2022-12-18T18:28:47.693Z,96.89
2022-12-18T18:31:14.208Z,97.04
2022-12-18T18:33:41.059Z,97.17
2022-12-18T18:36:09.836Z,96.65
2022-12-18T18:38:36.339Z,96.77
2022-12-18T18:41:03.799Z,96.90
2022-12-18T18:43:30.549Z,96.51
2022-12-18T18:46:01.452Z,95.59
2022-12-18T18:48:30.795Z,95.66
2022-12-18T18:51:00.313Z,96.33
2022-12-18T18:53:28.388Z,95.72
2022-12-18T18:56:34.528Z,96.46
2022-12-18T18:58:44.155Z,95.95
2022-12-18T19:01:12.120Z,96.37
2022-12-18T19:03:39.226Z,96.73
2022-12-18T19:06:07.087Z,96.23
2022-12-18T19:08:34.679Z,96.93
2022-12-18T19:11:01.777Z,96.21
2022-12-18T19:13:29.764Z,96.25
2022-12-18T19:16:04.271Z,95.80
2022-12-18T19:18:31.253Z,95.68
2022-12-18T19:20:58.821Z,95.11
2022-12-18T19:23:25.512Z,95.25
2022-12-18T19:26:04.215Z,95.44
2022-12-18T19:28:38.671Z,94.67
2022-12-18T19:31:07.256Z,93.92
2022-12-18T19:33:43.129Z,94.73
2022-12-18T19:36:11.838Z,94.89
2022-12-18T19:38:39.018Z,94.47
2022-12-18T19:41:09.307Z,95.46
2022-12-18T19:43:39.541Z,94.61
2022-12-18T19:46:07.005Z,94.88
2022-12-18T19:48:34.159Z,95.00
2022-12-18T19:51:07.580Z,94.25
2022-12-18T19:53:34.255Z,93.63
2022-12-18T19:56:07.736Z,94.17
2022-12-18T19:58:34.313Z,94.42
2022-12-18T20:01:00.867Z,94.09
2022-12-18T20:03:32.357Z,93.24
2022-12-18T20:06:13.023Z,93.20
2022-12-18T20:08:39.707Z,93.20
2022-12-18T20:11:06.635Z,92.87
2022-12-18T20:13:33.288Z,93.51
2022-12-18T20:15:59.745Z,92.72
2022-12-18T20:18:26.243Z,93.69
2022-12-18T20:20:52.960Z,93.25
2022-12-18T20:23:22.824Z,93.67
2022-12-18T20:25:49.554Z,93.38
2022-12-18T20:28:15.989Z,93.41
2022-12-18T20:30:42.451Z,93.80
2022-12-18T20:33:09.087Z,93.48
2022-12-18T20:35:35.565Z,92.05
2022-12-18T20:38:02.575Z,92.42
2022-12-18T20:40:30.624Z,92.16
2022-12-18T20:42:57.050Z,92.53
2022-12-18T20:45:23.504Z,92.12
2022-12-18T20:47:50.005Z,92.31
2022-12-18T20:50:16.485Z,93.15
2022-12-18T20:52:42.957Z,92.61
2022-12-18T20:55:09.481Z,92.64
2022-12-18T20:57:35.974Z,92.67
2022-12-18T21:00:05.492Z,93.23
2022-12-18T21:02:33.904Z,93.25
2022-12-18T21:05:00.520Z,92.49
2022-12-18T21:07:27.452Z,92.47
2022-12-18T21:09:54.204Z,92.94
2022-12-18T21:12:42.604Z,92.93
2022-12-18T21:15:24.038Z,92.74
2022-12-18T21:17:54.903Z,92.71
2022-12-18T21:20:21.540Z,91.65
2022-12-18T21:22:49.232Z,92.62
2022-12-18T21:25:15.854Z,92.36
2022-12-18T21:27:42.324Z,92.72
2022-12-18T21:30:08.997Z,92.18
2022-12-18T21:32:35.471Z,92.54
2022-12-18T21:35:01.994Z,92.09
2022-12-18T21:37:28.405Z,92.25
2022-12-18T21:39:54.893Z,91.58
2022-12-18T21:42:40.037Z,91.71
2022-12-18T21:45:06.757Z,91.06
2022-12-18T21:47:33.173Z,92.11
2022-12-18T21:49:59.673Z,91.99
2022-12-18T21:52:31.451Z,91.89
2022-12-18T21:55:06.180Z,91.98
2022-12-18T21:57:34.803Z,92.08
2022-12-18T22:00:02.149Z,91.08
2022-12-18T22:02:38.558Z,91.16
2022-12-18T22:05:05.239Z,92.12
2022-12-18T22:07:31.733Z,93.25
2022-12-18T22:09:58.343Z,92.80
2022-12-18T22:12:35.773Z,92.59
2022-12-18T22:15:09.868Z,94.16
2022-12-18T22:17:37.456Z,93.72
2022-12-18T22:20:04.101Z,93.73
2022-12-18T22:22:30.669Z,94.17
2022-12-18T22:24:57.132Z,93.76
2022-12-18T22:27:23.594Z,93.28
2022-12-18T22:30:05.325Z,93.07
2022-12-18T22:32:32.532Z,92.82
2022-12-18T22:35:05.263Z,93.42
2022-12-18T22:37:34.653Z,92.45
2022-12-18T22:40:03.175Z,91.03
2022-12-18T22:42:31.178Z,91.98
2022-12-18T22:44:57.629Z,91.86
2022-12-18T22:47:29.197Z,89.18
2022-12-18T22:49:56.427Z,88.95
2022-12-18T22:52:24.775Z,90.00
2022-12-18T22:54:53.531Z,90.31
2022-12-18T22:57:21.644Z,90.26
2022-12-18T22:59:49.094Z,89.95
2022-12-18T23:02:15.677Z,89.57
2022-12-18T23:04:42.225Z,89.36
2022-12-18T23:07:08.816Z,87.76
2022-12-18T23:09:37.684Z,89.49
2022-12-18T23:12:04.522Z,89.73
2022-12-18T23:14:31.025Z,89.98
2022-12-18T23:16:57.545Z,90.37
2022-12-18T23:19:24.396Z,90.63
2022-12-18T23:21:51.256Z,90.36
2022-12-18T23:24:18.144Z,90.56
2022-12-18T23:26:44.589Z,90.93
2022-12-18T23:29:11.056Z,90.50
2022-12-18T23:31:39.097Z,90.90
2022-12-18T23:34:06.263Z,91.02
2022-12-18T23:36:41.845Z,91.14
2022-12-18T23:39:17.459Z,92.40
2022-12-18T23:41:54.485Z,92.36
2022-12-18T23:44:20.929Z,92.30
2022-12-18T23:46:47.356Z,92.28
2022-12-18T23:49:13.996Z,92.34
2022-12-18T23:51:40.410Z,93.03
2022-12-18T23:54:06.824Z,93.74
2022-12-18T23:56:35.664Z,92.77
2022-12-18T23:59:02.169Z,92.44
